createdAt,value
2022-09-10T00:01:59.404Z,101006.38
2022-09-10T00:04:26.574Z,101015.25
2022-09-10T00:06:53.214Z,101007.41
2022-09-10T00:09:19.780Z,101009.06
2022-09-10T00:11:46.493Z,100995.22
2022-09-10T00:14:20.588Z,101002.88
2022-09-10T00:16:47.830Z,101002.22
2022-09-10T00:19:15.050Z,101008.41
2022-09-10T00:21:41.708Z,101004.91
2022-09-10T00:24:08.482Z,101006.13
2022-09-10T00:26:39.148Z,101011.94
2022-09-10T00:29:08.681Z,101008.63
2022-09-10T00:31:35.416Z,101007.56
2022-09-10T00:34:02.975Z,101008.63
2022-09-10T00:36:33.038Z,101006.94
2022-09-10T00:39:03.356Z,101013.97
2022-09-10T00:41:31.002Z,101002.78
2022-09-10T00:44:00.420Z,101009.63
2022-09-10T00:46:40.224Z,101012.13
2022-09-10T00:49:25.940Z,101006.28
2022-09-10T00:51:53.796Z,101013.97
2022-09-10T00:54:23.782Z,101002.78
2022-09-10T00:56:54.247Z,101017.00
2022-09-10T00:59:23.679Z,101019.34
2022-09-10T01:01:50.291Z,101010.63
2022-09-10T01:04:17.091Z,101014.16
2022-09-10T01:06:45.783Z,101011.47
2022-09-10T01:09:13.798Z,101015.00
2022-09-10T01:11:58.667Z,101007.97
2022-09-10T01:14:25.065Z,101004.44
2022-09-10T01:17:11.204Z,101012.47
2022-09-10T01:19:41.260Z,101006.47
2022-09-10T01:22:34.645Z,101007.66
2022-09-10T01:25:42.815Z,101008.31
2022-09-10T01:28:17.764Z,100999.13
2022-09-10T01:30:51.515Z,101007.47
2022-09-10T01:33:32.124Z,101010.16
2022-09-10T01:36:09.581Z,101011.34
2022-09-10T01:38:38.751Z,101012.84
2022-09-10T01:41:05.966Z,101016.53
2022-09-10T01:43:33.790Z,101006.63
2022-09-10T01:46:05.879Z,101013.66
2022-09-10T01:49:11.566Z,101005.81
2022-09-10T01:52:06.773Z,101011.16
2022-09-10T01:55:01.123Z,101014.03
2022-09-10T01:57:36.654Z,101012.19
2022-09-10T02:00:09.926Z,101008.84
2022-09-10T02:02:41.964Z,101002.19
2022-09-10T02:05:09.787Z,101009.66
2022-09-10T02:07:37.304Z,101006.16
2022-09-10T02:10:06.698Z,101000.53
2022-09-10T02:12:34.618Z,101016.03
2022-09-10T02:15:01.628Z,101005.50
2022-09-10T02:17:33.733Z,101008.38
2022-09-10T02:20:04.389Z,100999.03
2022-09-10T02:22:33.778Z,101005.03
2022-09-10T02:25:00.270Z,101006.50
2022-09-10T02:27:30.008Z,101012.91
2022-09-10T02:29:57.676Z,101008.56
2022-09-10T02:32:24.456Z,100998.19
2022-09-10T02:34:50.903Z,101010.41
2022-09-10T02:37:17.380Z,101010.22
2022-09-10T02:39:45.485Z,101018.28
2022-09-10T02:42:15.905Z,101013.91
2022-09-10T02:44:42.531Z,101019.09
2022-09-10T02:47:08.972Z,101014.94
2022-09-10T02:49:35.429Z,101022.78
2022-09-10T02:52:05.094Z,101012.91
2022-09-10T02:54:31.586Z,101014.75
2022-09-10T02:56:58.317Z,101011.09
2022-09-10T02:59:25.122Z,101019.09
2022-09-10T03:01:51.923Z,101016.78
2022-09-10T03:04:18.487Z,101016.78
2022-09-10T03:06:45.247Z,101013.09
2022-09-10T03:09:11.766Z,101009.75
2022-09-10T03:11:39.780Z,101008.91
2022-09-10T03:14:09.081Z,101013.25
2022-09-10T03:16:35.839Z,101003.56
2022-09-10T03:19:02.327Z,101006.22
2022-09-10T03:21:29.397Z,101008.06
2022-09-10T03:23:57.129Z,101000.22
2022-09-10T03:26:27.086Z,101007.25
2022-09-10T03:28:53.749Z,101003.72
2022-09-10T03:31:21.672Z,101003.72
2022-09-10T03:33:49.127Z,101004.72
2022-09-10T03:36:15.772Z,101003.91
2022-09-10T03:38:42.523Z,101002.06
2022-09-10T03:41:09.310Z,100997.53
2022-09-10T03:43:36.014Z,100997.53
2022-09-10T03:46:03.130Z,100998.53
2022-09-10T03:48:29.986Z,100999.53
2022-09-10T03:50:56.841Z,101004.91
2022-09-10T03:53:23.837Z,100997.22
2022-09-10T03:55:51.884Z,101003.06
2022-09-10T03:58:18.856Z,100996.22
2022-09-10T04:00:46.474Z,101005.91
2022-09-10T04:03:14.528Z,101008.59
2022-09-10T04:05:45.389Z,101000.72
2022-09-10T04:08:13.645Z,100998.22
2022-09-10T04:10:41.754Z,100998.22
2022-09-10T04:13:09.339Z,101001.75
2022-09-10T04:15:37.224Z,100998.22
2022-09-10T04:18:05.999Z,100998.22
2022-09-10T04:20:33.188Z,100997.41
2022-09-10T04:23:00.315Z,101002.78
2022-09-10T04:25:27.885Z,100999.06
2022-09-10T04:27:54.505Z,101002.56
2022-09-10T04:30:21.047Z,101002.56
2022-09-10T04:32:47.568Z,101007.75
2022-09-10T04:35:16.895Z,101001.13
2022-09-10T04:37:43.344Z,101010.63
2022-09-10T04:40:10.822Z,101003.22
2022-09-10T04:42:38.239Z,101002.41
2022-09-10T04:45:06.319Z,101008.59
2022-09-10T04:47:34.069Z,101007.59
2022-09-10T04:50:00.896Z,101014.63
2022-09-10T04:52:27.877Z,101012.78
2022-09-10T04:54:54.433Z,100998.22
2022-09-10T04:57:21.201Z,101019.13
2022-09-10T04:59:47.668Z,101005.47
2022-09-10T05:02:14.201Z,101014.63
2022-09-10T05:04:40.748Z,101010.94
2022-09-10T05:07:07.291Z,101014.63
2022-09-10T05:09:33.897Z,101018.13
2022-09-10T05:12:01.191Z,101013.59
2022-09-10T05:14:27.845Z,101014.78
2022-09-10T05:16:55.252Z,101011.59
2022-09-10T05:19:22.092Z,101015.09
2022-09-10T05:21:48.609Z,101014.09
2022-09-10T05:24:15.666Z,101015.09
2022-09-10T05:26:42.762Z,101025.66
2022-09-10T05:29:09.243Z,101013.44
2022-09-10T05:31:35.781Z,101025.66
2022-09-10T05:34:02.375Z,101023.16
2022-09-10T05:36:29.414Z,101018.13
2022-09-10T05:38:55.879Z,101027.50
2022-09-10T05:41:22.354Z,101028.84
2022-09-10T05:43:48.883Z,101032.00
2022-09-10T05:46:15.620Z,101034.69
2022-09-10T05:48:42.604Z,101033.03
2022-09-10T05:51:09.507Z,101039.41
2022-09-10T05:53:35.973Z,101027.19
2022-09-10T05:56:02.637Z,101043.56
2022-09-10T05:58:30.078Z,101040.88
2022-09-10T06:00:58.078Z,101037.38
2022-09-10T06:03:24.767Z,101039.22
2022-09-10T06:05:51.643Z,101042.56
2022-09-10T06:08:21.150Z,101034.22
2022-09-10T06:11:06.029Z,101042.72
2022-09-10T06:13:34.140Z,101046.25
2022-09-10T06:16:01.060Z,101042.91
2022-09-10T06:18:28.182Z,101044.56
2022-09-10T06:21:28.387Z,101047.44
2022-09-10T06:23:55.398Z,101050.28
2022-09-10T06:26:21.977Z,101040.09
2022-09-10T06:28:49.831Z,101058.50
2022-09-10T06:31:19.768Z,101062.00
2022-09-10T06:33:48.861Z,101053.13
2022-09-10T06:36:15.757Z,101064.69
2022-09-10T06:38:44.987Z,101068.22
2022-09-10T06:41:13.562Z,101062.00
2022-09-10T06:43:41.562Z,101071.72
2022-09-10T06:46:32.321Z,101061.34
2022-09-10T06:49:02.810Z,101072.91
2022-09-10T06:51:30.063Z,101079.41
2022-09-10T06:53:57.709Z,101083.78
2022-09-10T06:56:24.600Z,101084.94
2022-09-10T06:58:51.701Z,101088.13
2022-09-10T07:01:20.664Z,101096.00
2022-09-10T07:03:47.392Z,101088.97
2022-09-10T07:06:16.694Z,101096.16
2022-09-10T07:08:43.450Z,101102.34
2022-09-10T07:11:13.872Z,101090.31
2022-09-10T07:13:41.372Z,101110.22
2022-09-10T07:16:08.012Z,101108.72
2022-09-10T07:18:35.510Z,101104.38
2022-09-10T07:21:12.294Z,101110.41
2022-09-10T07:23:39.355Z,101111.22
2022-09-10T07:26:13.993Z,101122.13
2022-09-10T07:28:42.377Z,101115.59
2022-09-10T07:31:19.568Z,101124.25
2022-09-10T07:33:47.324Z,101125.09
2022-09-10T07:36:14.892Z,101125.75
2022-09-10T07:38:42.272Z,101125.41
2022-09-10T07:41:11.349Z,101125.53
2022-09-10T07:43:39.215Z,101120.47
2022-09-10T07:46:13.359Z,101110.41
2022-09-10T07:48:41.566Z,101128.28
2022-09-10T07:51:09.299Z,101131.59
2022-09-10T07:53:36.008Z,101125.97
2022-09-10T07:56:05.339Z,101140.19
2022-09-10T07:58:35.695Z,101143.19
2022-09-10T08:01:09.124Z,101143.66
2022-09-10T08:03:36.530Z,101153.56
2022-09-10T08:06:03.896Z,101151.88
2022-09-10T08:08:32.515Z,101156.28
2022-09-10T08:11:13.745Z,101163.97
2022-09-10T08:13:41.830Z,101170.53
2022-09-10T08:16:10.202Z,101173.38
2022-09-10T08:18:37.281Z,101180.59
2022-09-10T08:21:05.512Z,101183.66
2022-09-10T08:23:32.708Z,101183.66
2022-09-10T08:25:59.400Z,101190.00
2022-09-10T08:28:27.260Z,101182.13
2022-09-10T08:31:07.762Z,101186.16
2022-09-10T08:33:35.934Z,101194.22
2022-09-10T08:36:04.003Z,101202.91
2022-09-10T08:38:32.966Z,101198.06
2022-09-10T08:41:09.693Z,101202.44
2022-09-10T08:43:43.499Z,101207.13
2022-09-10T08:46:22.420Z,101204.44
2022-09-10T08:49:16.304Z,101215.00
2022-09-10T08:52:19.902Z,101222.03
2022-09-10T08:54:57.433Z,101216.00
2022-09-10T08:57:35.144Z,101226.22
2022-09-10T09:00:03.033Z,101216.50
2022-09-10T09:02:54.098Z,101228.72
2022-09-10T09:05:23.417Z,101231.25
2022-09-10T09:07:51.998Z,101224.72
2022-09-10T09:10:28.473Z,101238.59
2022-09-10T09:13:16.335Z,101246.19
2022-09-10T09:15:57.045Z,101241.75
2022-09-10T09:18:39.178Z,101248.34
2022-09-10T09:21:16.477Z,101247.34
2022-09-10T09:24:13.543Z,101244.28
2022-09-10T09:26:44.948Z,101253.53
2022-09-10T09:29:34.741Z,101260.75
2022-09-10T09:32:05.227Z,101260.94
2022-09-10T09:35:24.248Z,101259.25
2022-09-10T09:38:12.034Z,101261.84
2022-09-10T09:40:47.548Z,101256.88
2022-09-10T09:43:45.197Z,101262.97
2022-09-10T09:46:17.188Z,101262.03
2022-09-10T09:48:45.228Z,101259.25
2022-09-10T09:51:15.810Z,101263.06
2022-09-10T09:53:46.324Z,101264.56
2022-09-10T09:56:29.638Z,101272.88
2022-09-10T09:58:59.031Z,101269.56
2022-09-10T10:01:26.998Z,101265.41
2022-09-10T10:03:59.466Z,101266.13
2022-09-10T10:06:32.786Z,101273.34
2022-09-10T10:09:15.243Z,101285.09
2022-09-10T10:11:41.679Z,101276.78
2022-09-10T10:14:21.916Z,101284.53
2022-09-10T10:16:57.295Z,101289.06
2022-09-10T10:19:34.260Z,101281.00
2022-09-10T10:22:19.035Z,101283.88
2022-09-10T10:24:47.899Z,101285.72
2022-09-10T10:27:23.065Z,101284.06
2022-09-10T10:29:55.361Z,101283.78
2022-09-10T10:32:31.000Z,101285.47
2022-09-10T10:35:06.744Z,101295.19
2022-09-10T10:38:06.361Z,101287.00
2022-09-10T10:40:45.187Z,101294.81
2022-09-10T10:43:37.052Z,101296.47
2022-09-10T10:46:20.909Z,101298.91
2022-09-10T10:49:05.390Z,101309.44
2022-09-10T10:51:38.296Z,101315.63
2022-09-10T10:54:28.445Z,101307.97
2022-09-10T10:57:09.328Z,101316.69
2022-09-10T10:59:46.331Z,101323.69
2022-09-10T11:02:45.380Z,101316.47
2022-09-10T11:05:27.019Z,101320.19
2022-09-10T11:07:56.389Z,101324.34
2022-09-10T11:10:33.470Z,101321.66
2022-09-10T11:12:59.915Z,101330.56
2022-09-10T11:15:37.703Z,101324.19
2022-09-10T11:18:28.319Z,101330.22
2022-09-10T11:21:00.129Z,101327.22
2022-09-10T11:23:41.136Z,101330.22
2022-09-10T11:26:12.312Z,101332.06
2022-09-10T11:28:54.294Z,101338.94
2022-09-10T11:31:45.976Z,101345.16
2022-09-10T11:34:16.554Z,101344.47
2022-09-10T11:37:19.154Z,101351.72
2022-09-10T11:39:49.120Z,101356.25
2022-09-10T11:42:25.665Z,101352.53
2022-09-10T11:45:02.978Z,101355.06
2022-09-10T11:47:29.447Z,101360.44
2022-09-10T11:50:10.333Z,101350.34
2022-09-10T11:52:38.100Z,101355.88
2022-09-10T11:55:08.450Z,101352.06
2022-09-10T11:58:02.366Z,101360.91
2022-09-10T12:00:33.663Z,101367.97
2022-09-10T12:03:27.170Z,101369.59
2022-09-10T12:06:04.805Z,101368.59
2022-09-10T12:08:57.025Z,101375.47
2022-09-10T12:11:35.424Z,101377.97
2022-09-10T12:14:07.584Z,101375.28
2022-09-10T12:16:42.475Z,101371.75
2022-09-10T12:19:46.217Z,101376.78
2022-09-10T12:22:28.653Z,101375.63
2022-09-10T12:25:02.035Z,101384.34
2022-09-10T12:28:01.398Z,101385.00
2022-09-10T12:30:29.038Z,101387.88
2022-09-10T12:32:59.191Z,101390.56
2022-09-10T12:35:31.379Z,101384.19
2022-09-10T12:38:35.749Z,101390.75
2022-09-10T12:41:03.926Z,101392.31
2022-09-10T12:43:43.336Z,101399.81
2022-09-10T12:46:09.818Z,101398.31
2022-09-10T12:48:46.284Z,101401.84
2022-09-10T12:51:52.355Z,101406.38
2022-09-10T12:54:50.795Z,101405.56
2022-09-10T12:57:50.725Z,101408.25
2022-09-10T13:00:22.151Z,101404.53
2022-09-10T13:03:06.331Z,101407.22
2022-09-10T13:05:53.239Z,101396.00
2022-09-10T13:08:27.995Z,101395.84
2022-09-10T13:11:01.278Z,101402.69
2022-09-10T13:13:42.539Z,101398.97
2022-09-10T13:16:20.380Z,101400.19
2022-09-10T13:18:48.306Z,101406.03
2022-09-10T13:21:40.786Z,101412.06
2022-09-10T13:24:36.831Z,101409.19
2022-09-10T13:27:12.711Z,101419.13
2022-09-10T13:29:53.514Z,101408.53
2022-09-10T13:32:38.261Z,101417.44
2022-09-10T13:35:45.644Z,101426.16
2022-09-10T13:38:29.851Z,101428.00
2022-09-10T13:41:39.000Z,101431.72
2022-09-10T13:44:25.643Z,101435.91
2022-09-10T13:46:59.201Z,101430.53
2022-09-10T13:49:46.609Z,101437.00
2022-09-10T13:52:17.511Z,101432.03
2022-09-10T13:54:51.652Z,101429.50
2022-09-10T13:57:44.071Z,101433.50
2022-09-10T14:00:23.498Z,101449.75
2022-09-10T14:03:00.691Z,101434.97
2022-09-10T14:05:27.221Z,101442.34
2022-09-10T14:08:00.239Z,101443.34
2022-09-10T14:10:26.805Z,101436.13
2022-09-10T14:12:54.796Z,101451.50
2022-09-10T14:15:27.845Z,101452.34
2022-09-10T14:17:58.898Z,101456.53
2022-09-10T14:20:34.615Z,101450.50
2022-09-10T14:23:12.715Z,101463.78
2022-09-10T14:25:41.565Z,101459.78
2022-09-10T14:28:16.770Z,101458.56
2022-09-10T14:30:44.636Z,101467.84
2022-09-10T14:33:25.334Z,101462.28
2022-09-10T14:35:52.723Z,101473.34
2022-09-10T14:38:24.761Z,101478.34
2022-09-10T14:41:08.483Z,101477.34
2022-09-10T14:43:38.972Z,101473.81
2022-09-10T14:46:10.341Z,101481.03
2022-09-10T14:48:41.159Z,101484.09
2022-09-10T14:51:18.021Z,101483.44
2022-09-10T14:53:49.672Z,101472.66
2022-09-10T14:56:40.919Z,101478.03
2022-09-10T14:59:22.661Z,101482.59
2022-09-10T15:01:49.331Z,101486.41
2022-09-10T15:04:19.308Z,101481.88
2022-09-10T15:06:45.788Z,101483.56
2022-09-10T15:09:13.606Z,101491.75
2022-09-10T15:12:05.090Z,101489.91
2022-09-10T15:14:32.498Z,101485.34
2022-09-10T15:16:59.344Z,101488.88
2022-09-10T15:19:25.962Z,101495.75
2022-09-10T15:21:52.604Z,101497.25
2022-09-10T15:24:21.520Z,101494.09
2022-09-10T15:26:48.564Z,101500.78
2022-09-10T15:29:15.845Z,101504.50
2022-09-10T15:31:43.700Z,101509.31
2022-09-10T15:34:11.081Z,101511.63
2022-09-10T15:36:40.330Z,101513.66
2022-09-10T15:39:08.586Z,101520.28
2022-09-10T15:41:35.125Z,101525.25
2022-09-10T15:44:02.992Z,101527.78
2022-09-10T15:46:29.697Z,101530.28
2022-09-10T15:48:58.727Z,101517.19
2022-09-10T15:51:25.451Z,101521.56
2022-09-10T15:53:53.421Z,101534.00
2022-09-10T15:56:21.623Z,101537.88
2022-09-10T15:58:58.000Z,101535.91
2022-09-10T16:01:28.032Z,101536.19
2022-09-10T16:03:58.909Z,101541.56
2022-09-10T16:06:31.229Z,101537.22
2022-09-10T16:09:02.967Z,101540.75
2022-09-10T16:11:32.072Z,101548.81
2022-09-10T16:14:04.139Z,101539.72
2022-09-10T16:16:32.701Z,101547.97
2022-09-10T16:19:00.411Z,101546.31
2022-09-10T16:21:29.618Z,101557.72
2022-09-10T16:23:58.004Z,101557.53
2022-09-10T16:26:27.218Z,101555.88
2022-09-10T16:28:57.096Z,101564.94
2022-09-10T16:31:30.339Z,101568.84
2022-09-10T16:33:58.762Z,101579.63
2022-09-10T16:36:26.615Z,101577.75
2022-09-10T16:38:56.044Z,101576.53
2022-09-10T16:41:24.293Z,101583.13
2022-09-10T16:43:51.735Z,101588.53
2022-09-10T16:46:18.959Z,101586.00
2022-09-10T16:48:46.175Z,101591.56
2022-09-10T16:51:15.576Z,101602.31
2022-09-10T16:53:48.722Z,101597.28
2022-09-10T16:56:16.421Z,101594.09
2022-09-10T16:58:47.169Z,101598.00
2022-09-10T17:01:14.949Z,101608.38
2022-09-10T17:03:44.017Z,101614.78
2022-09-10T17:06:15.894Z,101621.00
2022-09-10T17:08:43.053Z,101613.78
2022-09-10T17:11:09.532Z,101618.31
2022-09-10T17:13:36.124Z,101617.47
2022-09-10T17:16:37.454Z,101623.03
2022-09-10T17:19:26.234Z,101623.88
2022-09-10T17:21:55.626Z,101626.56
2022-09-10T17:24:27.112Z,101624.69
2022-09-10T17:26:57.628Z,101629.25
2022-09-10T17:29:25.510Z,101631.94
2022-09-10T17:31:52.443Z,101630.28
2022-09-10T17:34:21.442Z,101634.63
2022-09-10T17:36:48.750Z,101637.50
2022-09-10T17:39:15.331Z,101641.19
2022-09-10T17:41:43.037Z,101644.22
2022-09-10T17:44:11.325Z,101640.50
2022-09-10T17:46:38.503Z,101650.59
2022-09-10T17:49:05.329Z,101652.28
2022-09-10T17:51:34.083Z,101652.28
2022-09-10T17:54:02.475Z,101661.19
2022-09-10T17:56:29.169Z,101659.34
2022-09-10T17:59:01.620Z,101666.38
2022-09-10T18:01:33.736Z,101667.41
2022-09-10T18:04:00.474Z,101663.69
2022-09-10T18:06:29.142Z,101653.28
2022-09-10T18:09:02.901Z,101663.69
2022-09-10T18:11:31.880Z,101670.94
2022-09-10T18:13:59.323Z,101676.31
2022-09-10T18:16:28.410Z,101670.44
2022-09-10T18:19:01.097Z,101684.38
2022-09-10T18:21:31.065Z,101687.91
2022-09-10T18:24:00.457Z,101690.59
2022-09-10T18:26:39.367Z,101691.94
2022-09-10T18:29:09.522Z,101695.97
2022-09-10T18:31:38.695Z,101705.03
2022-09-10T18:34:07.517Z,101713.09
2022-09-10T18:36:34.779Z,101717.66
2022-09-10T18:39:06.159Z,101715.78
2022-09-10T18:41:36.468Z,101721.19
2022-09-10T18:44:05.444Z,101718.00
2022-09-10T18:46:33.011Z,101722.19
2022-09-10T18:49:00.805Z,101730.44
2022-09-10T18:51:29.677Z,101737.66
2022-09-10T18:53:59.927Z,101730.09
2022-09-10T18:56:29.844Z,101746.91
2022-09-10T18:59:03.092Z,101740.84
2022-09-10T19:01:31.011Z,101756.81
2022-09-10T19:03:58.245Z,101754.97
2022-09-10T19:06:27.377Z,101753.28
2022-09-10T19:08:57.721Z,101754.13
2022-09-10T19:11:26.707Z,101754.66
2022-09-10T19:13:57.030Z,101770.41
2022-09-10T19:16:27.338Z,101774.97
2022-09-10T19:18:56.341Z,101772.47
2022-09-10T19:21:24.624Z,101773.28
2022-09-10T19:23:55.187Z,101780.88
2022-09-10T19:26:25.182Z,101785.25
2022-09-10T19:28:52.373Z,101795.00
2022-09-10T19:31:20.745Z,101789.09
2022-09-10T19:33:48.269Z,101796.84
2022-09-10T19:36:17.572Z,101802.38
2022-09-10T19:38:44.315Z,101803.56
2022-09-10T19:41:20.539Z,101803.88
2022-09-10T19:43:48.842Z,101808.28
2022-09-10T19:46:17.422Z,101809.28
2022-09-10T19:48:46.615Z,101811.66
2022-09-10T19:51:16.182Z,101807.81
2022-09-10T19:53:43.409Z,101812.69
2022-09-10T19:56:21.846Z,101814.69
2022-09-10T19:58:51.066Z,101812.66
2022-09-10T20:01:20.690Z,101820.06
2022-09-10T20:03:48.334Z,101820.56
2022-09-10T20:06:18.274Z,101826.28
2022-09-10T20:08:47.159Z,101815.88
2022-09-10T20:11:22.969Z,101815.72
2022-09-10T20:13:54.731Z,101815.53
2022-09-10T20:16:22.097Z,101821.91
2022-09-10T20:18:48.839Z,101822.94
2022-09-10T20:21:21.597Z,101826.59
2022-09-10T20:23:51.062Z,101826.75
2022-09-10T20:26:20.521Z,101834.97
2022-09-10T20:28:52.670Z,101829.75
2022-09-10T20:31:20.669Z,101833.28
2022-09-10T20:33:49.276Z,101832.44
2022-09-10T20:36:17.306Z,101830.59
2022-09-10T20:38:44.059Z,101829.44
2022-09-10T20:43:39.230Z,101836.81
2022-09-10T20:46:09.181Z,101835.97
2022-09-10T20:48:35.694Z,101840.34
2022-09-10T20:51:02.166Z,101844.88
2022-09-10T20:53:28.703Z,101852.94
2022-09-10T20:56:04.619Z,101850.06
2022-09-10T20:58:34.015Z,101850.91
2022-09-10T21:01:12.245Z,101857.28
2022-09-10T21:03:41.025Z,101856.63
2022-09-10T21:06:08.970Z,101869.56
2022-09-10T21:08:37.166Z,101868.72
2022-09-10T21:11:09.262Z,101864.69
2022-09-10T21:13:37.002Z,101868.03
2022-09-10T21:16:12.543Z,101865.34
2022-09-10T21:18:41.553Z,101869.72
2022-09-10T21:21:11.568Z,101869.44
2022-09-10T21:23:46.375Z,101870.28
2022-09-10T21:26:15.006Z,101869.56
2022-09-10T21:28:42.283Z,101871.13
2022-09-10T21:31:09.528Z,101877.16
2022-09-10T21:33:36.665Z,101877.00
2022-09-10T21:36:08.251Z,101879.50
2022-09-10T21:38:37.909Z,101879.50
2022-09-10T21:41:13.573Z,101879.50
2022-09-10T21:43:46.420Z,101890.25
2022-09-10T21:46:14.122Z,101894.78
2022-09-10T21:48:42.419Z,101891.91
2022-09-10T21:51:14.483Z,101897.28
2022-09-10T21:53:42.402Z,101893.59
2022-09-10T21:56:11.978Z,101897.97
2022-09-10T21:58:40.129Z,101896.13
2022-09-10T22:01:15.717Z,101908.56
2022-09-10T22:03:42.213Z,101898.97
2022-09-10T22:06:18.457Z,101908.88
2022-09-10T22:08:48.283Z,101907.72
2022-09-10T22:11:18.985Z,101897.97
2022-09-10T22:13:51.445Z,101907.72
2022-09-10T22:16:18.255Z,101908.38
2022-09-10T22:18:45.282Z,101904.03
2022-09-10T22:21:11.800Z,101907.72
2022-09-10T22:23:39.272Z,101916.63
2022-09-10T22:26:17.335Z,101914.75
2022-09-10T22:28:44.518Z,101901.19
2022-09-10T22:31:14.430Z,101912.41
2022-09-10T22:33:43.725Z,101915.94
2022-09-10T22:36:18.834Z,101924.66
2022-09-10T22:38:53.774Z,101915.44
2022-09-10T22:41:23.089Z,101915.44
2022-09-10T22:43:50.434Z,101927.53
2022-09-10T22:46:17.781Z,101937.44
2022-09-10T22:48:45.490Z,101931.22
2022-09-10T22:51:18.114Z,101938.59
2022-09-10T22:53:45.688Z,101936.59
2022-09-10T22:56:13.665Z,101937.94
2022-09-10T22:58:40.756Z,101929.03
2022-09-10T23:01:11.115Z,101936.09
2022-09-10T23:03:37.815Z,101940.44
2022-09-10T23:06:09.021Z,101936.94
2022-09-10T23:08:36.299Z,101943.13
2022-09-10T23:11:15.244Z,101945.81
2022-09-10T23:13:43.548Z,101947.84
2022-09-10T23:16:11.953Z,101951.38
2022-09-10T23:18:39.740Z,101944.31
2022-09-10T23:21:07.342Z,101950.53
2022-09-10T23:23:34.649Z,101950.53
2022-09-10T23:26:09.644Z,101948.84
2022-09-10T23:28:37.101Z,101952.53
2022-09-10T23:31:14.545Z,101957.06
2022-09-10T23:33:46.688Z,101951.47
2022-09-10T23:36:13.845Z,101955.84
2022-09-10T23:38:42.284Z,101959.91
2022-09-10T23:41:09.673Z,101963.56
2022-09-10T23:43:36.147Z,101960.19
2022-09-10T23:46:02.745Z,101971.78
2022-09-10T23:48:29.935Z,101969.09
2022-09-10T23:50:57.289Z,101964.06
2022-09-10T23:53:25.323Z,101970.09
2022-09-10T23:55:52.132Z,101950.97
2022-09-10T23:58:19.883Z,101966.56
